| time (UTC) | temp C | wind direction | speed KPH | gust KPH | rain 1hr cm | rain 24hr cm | rain mn cm | humidity % | barometer mb |
| 20260509213005 | 27 | 122 | 6.4 | 11.3 | 0.00 | 0.00 | 0.00 | 43 | 829.3 |
| 20260509212505 | 27 | 135 | 9.7 | 16.1 | 0.00 | 0.00 | 0.00 | 43 | 829.3 |
| 20260509211505 | 27 | 112 | 4.8 | 8.0 | 0.00 | 0.00 | 0.00 | 43 | 829.3 |
| 20260509211006 | 27 | 118 | 11.3 | 14.5 | 0.00 | 0.00 | 0.00 | 42 | 829.3 |
| 20260509210505 | 27 | 145 | 8.0 | 11.3 | 0.00 | 0.00 | 0.00 | 42 | 829.3 |
| 20260509210007 | 27 | 130 | 6.4 | 9.7 | 0.00 | 0.00 | 0.00 | 41 | 829.3 |
| 20260509205504 | 27 | 126 | 4.8 | 9.7 | 0.00 | 0.00 | 0.00 | 43 | 829.3 |
| 20260509205005 | 27 | 101 | 6.4 | 11.3 | 0.00 | 0.00 | 0.00 | 42 | 829.3 |
| 20260509204004 | 27 | 88 | 6.4 | 8.0 | 0.00 | 0.00 | 0.00 | 44 | 829.3 |
| 20260509203504 | 27 | 135 | 8.0 | 16.1 | 0.00 | 0.00 | 0.00 | 42 | 829.3 |
| 20260509202505 | 27 | 321 | 1.6 | 4.8 | 0.00 | 0.00 | 0.00 | 43 | 829.3 |
| 20260509201504 | 27 | 89 | 8.0 | 12.9 | 0.00 | 0.00 | 0.00 | 43 | 829.3 |
| 20260509201005 | 27 | 158 | 6.4 | 9.7 | 0.00 | 0.00 | 0.00 | 44 | 829.3 |
| 20260509200005 | 27 | 45 | 11.3 | 12.9 | 0.00 | 0.00 | 0.00 | 42 | 829.3 |
| 20260509195504 | 27 | 151 | 8.0 | 12.9 | 0.00 | 0.00 | 0.00 | 42 | 829.3 |
| 20260509195005 | 27 | 79 | 8.0 | 11.3 | 0.00 | 0.00 | 0.00 | 44 | 829.3 |
| 20260509194506 | 27 | 15 | 4.8 | 8.0 | 0.00 | 0.00 | 0.00 | 48 | 829.2 |
| 20260509194005 | 27 | 164 | 4.8 | 11.3 | 0.00 | 0.00 | 0.00 | 43 | 829.3 |
| 20260509193505 | 27 | 116 | 6.4 | 8.0 | 0.00 | 0.00 | 0.00 | 41 | 829.2 |
| 20260509192504 | 26 | 96 | 6.4 | 9.7 | 0.00 | 0.00 | 0.00 | 42 | 829.2 |
| 20260509192005 | 27 | 119 | 11.3 | 14.5 | 0.00 | 0.00 | 0.00 | 42 | 829.2 |
| 20260509191004 | 26 | 134 | 9.7 | 27.4 | 0.00 | 0.00 | 0.00 | 45 | 829.2 |
| 20260509185505 | 26 | 48 | 6.4 | 8.0 | 0.00 | 0.00 | 0.00 | 46 | 829.2 |
| 20260509185005 | 26 | 64 | 8.0 | 11.3 | 0.00 | 0.00 | 0.00 | 47 | 829.1 |
| 20260509184505 | 26 | 36 | 4.8 | 8.0 | 0.00 | 0.00 | 0.00 | 49 | 829.1 |
| 20260509184006 | 26 | 50 | 9.7 | 12.9 | 0.00 | 0.00 | 0.00 | 49 | 829.1 |
| 20260509183504 | 26 | 107 | 3.2 | 6.4 | 0.00 | 0.00 | 0.00 | 49 | 829.2 |
| 20260509183005 | 26 | 107 | 3.2 | 6.4 | 0.00 | 0.00 | 0.00 | 49 | 829.2 |
| 20260509182505 | 26 | 77 | 3.2 | 6.4 | 0.00 | 0.00 | 0.00 | 51 | 829.2 |
| 20260509182004 | 26 | 63 | 3.2 | 8.0 | 0.00 | 0.00 | 0.00 | 48 | 829.3 |
| 20260509180504 | 26 | 3 | 1.6 | 3.2 | 0.00 | 0.00 | 0.00 | 51 | 829.2 |
| 20260509180005 | 25 | 242 | 3.2 | 6.4 | 0.00 | 0.00 | 0.00 | 56 | 829.1 |
| 20260509175504 | 25 | 262 | 3.2 | 4.8 | 0.00 | 0.00 | 0.00 | 53 | 829.1 |
| 20260509175005 | 25 | 233 | 3.2 | 6.4 | 0.00 | 0.00 | 0.00 | 54 | 829.1 |
| 20260509174504 | 25 | 200 | 3.2 | 6.4 | 0.00 | 0.00 | 0.00 | 55 | 829.1 |
| 20260509174005 | 25 | 176 | 6.4 | 9.7 | 0.00 | 0.00 | 0.00 | 56 | 829.1 |
| 20260509173506 | 25 | 308 | 3.2 | 4.8 | 0.00 | 0.00 | 0.00 | 53 | 829.1 |
| 20260509173005 | 25 | 135 | 4.8 | 8.0 | 0.00 | 0.00 | 0.00 | 54 | 829.0 |
| 20260509172505 | 25 | 126 | 3.2 | 6.4 | 0.00 | 0.00 | 0.00 | 57 | 829.1 |
| 20260509172005 | 25 | 122 | 6.4 | 9.7 | 0.00 | 0.00 | 0.00 | 54 | 829.1 |
| 20260509170505 | 25 | 218 | 1.6 | 3.2 | 0.00 | 0.00 | 0.00 | 61 | 829.1 |
| 20260509170004 | 25 | 157 | 1.6 | 8.0 | 0.00 | 0.00 | 0.00 | 60 | 829.0 |
| 20260509165505 | 25 | 320 | 1.6 | 4.8 | 0.00 | 0.00 | 0.00 | 62 | 829.1 |
| 20260509165005 | 24 | 183 | 3.2 | 4.8 | 0.00 | 0.00 | 0.00 | 63 | 829.0 |
| 20260509164505 | 24 | 150 | 4.8 | 6.4 | 0.00 | 0.00 | 0.00 | 65 | 828.9 |
| 20260509164004 | 23 | 156 | 1.6 | 4.8 | 0.00 | 0.00 | 0.00 | 66 | 828.9 |
| 20260509163505 | 23 | 145 | 4.8 | 4.8 | 0.00 | 0.00 | 0.00 | 64 | 828.9 |
| 20260509163005 | 23 | 186 | 3.2 | 4.8 | 0.00 | 0.00 | 0.00 | 66 | 828.9 |
| 20260509162505 | 23 | 161 | 4.8 | 9.7 | 0.00 | 0.00 | 0.00 | 67 | 828.9 |
| 20260509162005 | 23 | 205 | 1.6 | 3.2 | 0.00 | 0.00 | 0.00 | 69 | 828.9 |
| 20260509161504 | 23 | 190 | 3.2 | 6.4 | 0.00 | 0.00 | 0.00 | 69 | 828.9 |
| 20260509160005 | 23 | 134 | 4.8 | 9.7 | 0.00 | 0.00 | 0.00 | 70 | 828.8 |
| 20260509155004 | 22 | 126 | 3.2 | 6.4 | 0.00 | 0.00 | 0.00 | 71 | 828.8 |
| 20260509154004 | 22 | 203 | 3.2 | 6.4 | 0.00 | 0.00 | 0.00 | 73 | 828.7 |
| 20260509153504 | 22 | 166 | 4.8 | 6.4 | 0.00 | 0.00 | 0.00 | 75 | 828.7 |
| 20260509153005 | 21 | 148 | 1.6 | 3.2 | 0.00 | 0.00 | 0.00 | 77 | 828.7 |
| 20260509151504 | 21 | 158 | 6.4 | 9.7 | 0.00 | 0.00 | 0.00 | 79 | 828.6 |
| 20260509151005 | 21 | 123 | 4.8 | 8.0 | 0.00 | 0.00 | 0.00 | 79 | 828.6 |
| 20260509150505 | 20 | 122 | 6.4 | 9.7 | 0.00 | 0.00 | 0.00 | 80 | 828.6 |
| 20260509150005 | 20 | 136 | 8.0 | 11.3 | 0.00 | 0.00 | 0.00 | 80 | 828.6 |
| 20260509145505 | 20 | 94 | 6.4 | 9.7 | 0.00 | 0.00 | 0.00 | 82 | 828.6 |
| 20260509144004 | 20 | 167 | 1.6 | 6.4 | 0.00 | 0.00 | 0.00 | 82 | 828.6 |
| 20260509143505 | 20 | 173 | 3.2 | 6.4 | 0.00 | 0.00 | 0.00 | 83 | 828.6 |
| 20260509143005 | 20 | 150 | 3.2 | 6.4 | 0.00 | 0.00 | 0.00 | 82 | 828.5 |
| 20260509142504 | 20 | 157 | 1.6 | 4.8 | 0.00 | 0.00 | 0.00 | 83 | 828.5 |
| 20260509142005 | 20 | 143 | 8.0 | 11.3 | 0.00 | 0.00 | 0.00 | 84 | 828.5 |
| 20260509140505 | 19 | 139 | 6.4 | 9.7 | 0.00 | 0.00 | 0.00 | 84 | 828.4 |
| 20260509140006 | 19 | 133 | 3.2 | 8.0 | 0.00 | 0.00 | 0.00 | 85 | 828.4 |
| 20260509135005 | 18 | 135 | 1.6 | 4.8 | 0.00 | 0.00 | 0.00 | 87 | 828.3 |
| 20260509134504 | 18 | 119 | 3.2 | 6.4 | 0.00 | 0.00 | 0.00 | 88 | 828.3 |
| 20260509134004 | 18 | 94 | 0.0 | 1.6 | 0.00 | 0.00 | 0.00 | 91 | 828.3 |
| 20260509133504 | 18 | 53 | 0.0 | 1.6 | 0.00 | 0.00 | 0.00 | 92 | 828.3 |
| 20260509133005 | 17 | 44 | 1.6 | 3.2 | 0.00 | 0.00 | 0.00 | 92 | 828.3 |
| 20260509132504 | 17 | 98 | 1.6 | 3.2 | 0.00 | 0.00 | 0.00 | 92 | 828.2 |
| 20260509132004 | 16 | 76 | 3.2 | 4.8 | 0.00 | 0.00 | 0.00 | 93 | 828.1 |
| 20260509131504 | 16 | 87 | 1.6 | 3.2 | 0.00 | 0.00 | 0.00 | 93 | 828.1 |
| 20260509131004 | 16 | 105 | 1.6 | 3.2 | 0.00 | 0.00 | 0.00 | 94 | 828.0 |
| 20260509130505 | 16 | 117 | 1.6 | 3.2 | 0.00 | 0.00 | 0.00 | 94 | 828.0 |
| 20260509130005 | 15 | 111 | 0.0 | 1.6 | 0.00 | 0.00 | 0.00 | 94 | 828.0 |
| 20260509125505 | 15 | 78 | 1.6 | 1.6 | 0.00 | 0.00 | 0.00 | 94 | 828.0 |
| 20260509125005 | 15 | 90 | 1.6 | 1.6 | 0.00 | 0.00 | 0.00 | 94 | 827.9 |
| 20260509124005 | 14 | 22 | 0.0 | 0.0 | 0.00 | 0.00 | 0.00 | 93 | 827.9 |
| 20260509123505 | 13 | 334 | 0.0 | 0.0 | 0.00 | 0.00 | 0.00 | 93 | 827.8 |
| 20260509123005 | 13 | 343 | 0.0 | 0.0 | 0.00 | 0.00 | 0.00 | 93 | 827.7 |
| 20260509122505 | 13 | 75 | 0.0 | 0.0 | 0.00 | 0.00 | 0.00 | 93 | 827.7 |
| 20260509122005 | 13 | 27 | 0.0 | 1.6 | 0.00 | 0.00 | 0.00 | 93 | 827.7 |
| 20260509121505 | 13 | 229 | 0.0 | 1.6 | 0.00 | 0.00 | 0.00 | 93 | 827.7 |
| 20260509121004 | 13 | 252 | 0.0 | 1.6 | 0.00 | 0.00 | 0.00 | 93 | 827.7 |
| 20260509120505 | 12 | 151 | 0.0 | 0.0 | 0.00 | 0.00 | 0.00 | 93 | 827.7 |
| 20260509120005 | 12 | 343 | 0.0 | 0.0 | 0.00 | 0.00 | 0.00 | 93 | 827.6 |
| 20260509115004 | 13 | 3 | 0.0 | 1.6 | 0.00 | 0.00 | 0.00 | 93 | 827.6 |
| 20260509114505 | 13 | 0 | 0.0 | 0.0 | 0.00 | 0.00 | 0.00 | 93 | 827.7 |
| 20260509114004 | 13 | 110 | 1.6 | 1.6 | 0.00 | 0.00 | 0.00 | 93 | 827.7 |
| 20260509113506 | 13 | 97 | 0.0 | 0.0 | 0.00 | 0.00 | 0.00 | 93 | 827.7 |
| 20260509112504 | 12 | 343 | 0.0 | 0.0 | 0.00 | 0.00 | 0.00 | 93 | 827.6 |
| 20260509112004 | 13 | 55 | 0.0 | 0.0 | 0.00 | 0.00 | 0.00 | 93 | 827.6 |
| 20260509111004 | 13 | 358 | 1.6 | 1.6 | 0.00 | 0.00 | 0.00 | 93 | 827.6 |
| 20260509110505 | 13 | 293 | 0.0 | 1.6 | 0.00 | 0.00 | 0.00 | 93 | 827.6 |
| 20260509110004 | 13 | 324 | 0.0 | 0.0 | 0.00 | 0.00 | 0.00 | 93 | 827.7 |
| 20260509105505 | 13 | 36 | 1.6 | 1.6 | 0.00 | 0.00 | 0.00 | 93 | 827.7 |
| 20260509105004 | 13 | 357 | 0.0 | 1.6 | 0.00 | 0.00 | 0.00 | 93 | 827.7 |
| 20260509104504 | 13 | 69 | 1.6 | 3.2 | 0.00 | 0.00 | 0.00 | 93 | 827.7 |
| 20260509104005 | 13 | 341 | 0.0 | 0.0 | 0.00 | 0.00 | 0.00 | 93 | 827.7 |
| 20260509103505 | 13 | 317 | 1.6 | 1.6 | 0.00 | 0.00 | 0.00 | 93 | 827.7 |
| 20260509103004 | 13 | 2 | 1.6 | 1.6 | 0.00 | 0.00 | 0.00 | 93 | 827.7 |
| 20260509102505 | 13 | 348 | 0.0 | 1.6 | 0.00 | 0.00 | 0.00 | 93 | 827.7 |
| 20260509102005 | 13 | 184 | 0.0 | 1.6 | 0.00 | 0.00 | 0.00 | 93 | 827.7 |
| 20260509101505 | 13 | 245 | 1.6 | 1.6 | 0.00 | 0.00 | 0.00 | 93 | 827.7 |
| 20260509101005 | 13 | 296 | 0.0 | 0.0 | 0.00 | 0.00 | 0.00 | 93 | 827.7 |
| 20260509100504 | 13 | 329 | 0.0 | 1.6 | 0.00 | 0.00 | 0.00 | 93 | 827.7 |
| 20260509100006 | 13 | 0 | 0.0 | 0.0 | 0.00 | 0.00 | 0.00 | 93 | 827.7 |
| 20260509095504 | 13 | 0 | 0.0 | 0.0 | 0.00 | 0.00 | 0.00 | 93 | 827.7 |
| 20260509095005 | 13 | 165 | 0.0 | 0.0 | 0.00 | 0.00 | 0.00 | 92 | 827.7 |
| 20260509094504 | 13 | 84 | 0.0 | 0.0 | 0.00 | 0.00 | 0.00 | 92 | 827.7 |
| 20260509094005 | 13 | 358 | 0.0 | 0.0 | 0.00 | 0.00 | 0.00 | 92 | 827.7 |
| 20260509093506 | 13 | 112 | 0.0 | 0.0 | 0.00 | 0.00 | 0.00 | 92 | 827.7 |
| 20260509093005 | 13 | 128 | 0.0 | 0.0 | 0.00 | 0.00 | 0.00 | 92 | 827.7 |
| 20260509092505 | 13 | 116 | 1.6 | 1.6 | 0.00 | 0.00 | 0.00 | 92 | 827.7 |
| 20260509091504 | 13 | 305 | 0.0 | 1.6 | 0.00 | 0.00 | 0.00 | 92 | 827.7 |
| 20260509091005 | 14 | 251 | 0.0 | 0.0 | 0.00 | 0.00 | 0.00 | 92 | 827.8 |
| 20260509090506 | 14 | 281 | 0.0 | 0.0 | 0.00 | 0.00 | 0.00 | 92 | 827.8 |
| 20260509090005 | 14 | 111 | 0.0 | 1.6 | 0.00 | 0.00 | 0.00 | 92 | 827.8 |
| 20260509085005 | 14 | 83 | 0.0 | 0.0 | 0.00 | 0.00 | 0.00 | 92 | 827.8 |
| 20260509084505 | 14 | 125 | 1.6 | 3.2 | 0.00 | 0.00 | 0.00 | 92 | 827.8 |
| 20260509084005 | 14 | 121 | 1.6 | 3.2 | 0.00 | 0.00 | 0.00 | 92 | 827.8 |
| 20260509083504 | 14 | 331 | 0.0 | 0.0 | 0.00 | 0.00 | 0.00 | 92 | 827.8 |
| 20260509083005 | 14 | 36 | 0.0 | 1.6 | 0.00 | 0.00 | 0.00 | 92 | 827.8 |
| 20260509082505 | 14 | 107 | 0.0 | 0.0 | 0.00 | 0.00 | 0.00 | 92 | 827.8 |
| 20260509082004 | 14 | 86 | 0.0 | 1.6 | 0.00 | 0.00 | 0.00 | 92 | 827.8 |
| 20260509081505 | 14 | 20 | 0.0 | 1.6 | 0.00 | 0.00 | 0.00 | 92 | 827.8 |
| 20260509081005 | 14 | 339 | 0.0 | 1.6 | 0.00 | 0.00 | 0.00 | 92 | 827.8 |
| 20260509080505 | 14 | 351 | 0.0 | 1.6 | 0.00 | 0.00 | 0.00 | 92 | 827.8 |
| 20260509080006 | 15 | 340 | 0.0 | 1.6 | 0.00 | 0.00 | 0.00 | 92 | 827.8 |
| 20260509075005 | 15 | 0 | 0.0 | 1.6 | 0.00 | 0.00 | 0.00 | 92 | 827.8 |
| 20260509074505 | 15 | 4 | 0.0 | 1.6 | 0.00 | 0.00 | 0.00 | 92 | 827.9 |
| 20260509074005 | 15 | 344 | 1.6 | 3.2 | 0.00 | 0.00 | 0.00 | 92 | 827.9 |
| 20260509073506 | 15 | 351 | 0.0 | 1.6 | 0.00 | 0.00 | 0.00 | 92 | 827.9 |
| 20260509073005 | 15 | 337 | 0.0 | 3.2 | 0.00 | 0.00 | 0.00 | 92 | 827.9 |
| 20260509072505 | 15 | 354 | 0.0 | 1.6 | 0.00 | 0.00 | 0.00 | 92 | 827.8 |
| 20260509072005 | 15 | 59 | 0.0 | 0.0 | 0.00 | 0.00 | 0.00 | 92 | 827.8 |
| 20260509071504 | 15 | 15 | 0.0 | 1.6 | 0.00 | 0.00 | 0.00 | 92 | 827.9 |
| 20260509071005 | 15 | 107 | 0.0 | 1.6 | 0.00 | 0.00 | 0.00 | 92 | 827.9 |
| 20260509070505 | 15 | 68 | 0.0 | 1.6 | 0.00 | 0.00 | 0.00 | 92 | 827.9 |
| 20260509070005 | 15 | 349 | 0.0 | 0.0 | 0.00 | 0.00 | 0.00 | 92 | 827.9 |
| 20260509065506 | 15 | 48 | 0.0 | 1.6 | 0.00 | 0.00 | 0.00 | 92 | 827.9 |
| 20260509065011 | 15 | 100 | 0.0 | 1.6 | 0.00 | 0.00 | 0.00 | 92 | 827.9 |
| 20260509064005 | 15 | 0 | 0.0 | 0.0 | 0.00 | 0.00 | 0.00 | 91 | 827.9 |
| 20260509063505 | 15 | 80 | 0.0 | 0.0 | 0.00 | 0.00 | 0.00 | 92 | 827.9 |
| 20260509063005 | 15 | 116 | 1.6 | 1.6 | 0.00 | 0.00 | 0.00 | 92 | 827.9 |
| 20260509062004 | 15 | 183 | 0.0 | 1.6 | 0.00 | 0.00 | 0.00 | 91 | 827.9 |
| 20260509061005 | 15 | 82 | 1.6 | 3.2 | 0.00 | 0.00 | 0.00 | 91 | 827.9 |
| 20260509060505 | 15 | 36 | 0.0 | 1.6 | 0.00 | 0.00 | 0.00 | 91 | 827.9 |
| 20260509060005 | 15 | 93 | 0.0 | 1.6 | 0.00 | 0.00 | 0.00 | 91 | 827.9 |
| 20260509055505 | 15 | 44 | 1.6 | 1.6 | 0.00 | 0.00 | 0.00 | 91 | 827.9 |
| 20260509055005 | 15 | 19 | 0.0 | 1.6 | 0.00 | 0.00 | 0.00 | 91 | 827.9 |
| 20260509054504 | 15 | 4 | 0.0 | 1.6 | 0.00 | 0.00 | 0.00 | 91 | 827.9 |
| 20260509053505 | 16 | 337 | 0.0 | 1.6 | 0.00 | 0.00 | 0.00 | 91 | 828.0 |
| 20260509053004 | 16 | 2 | 0.0 | 1.6 | 0.00 | 0.00 | 0.00 | 91 | 828.0 |
| 20260509052504 | 16 | 61 | 3.2 | 4.8 | 0.00 | 0.00 | 0.00 | 91 | 828.0 |
| 20260509052005 | 16 | 49 | 6.4 | 8.0 | 0.00 | 0.00 | 0.00 | 91 | 828.0 |
| 20260509051505 | 16 | 53 | 9.7 | 12.9 | 0.00 | 0.00 | 0.00 | 91 | 828.0 |
| 20260509051006 | 16 | 51 | 9.7 | 11.3 | 0.00 | 0.00 | 0.00 | 91 | 828.0 |
| 20260509050506 | 16 | 59 | 6.4 | 9.7 | 0.00 | 0.00 | 0.00 | 91 | 828.0 |
| 20260509050010 | 15 | 62 | 3.2 | 4.8 | 0.97 | 0.00 | 0.00 | 91 | 827.9 |
| 20260509045504 | 15 | 56 | 4.8 | 6.4 | 0.97 | 0.00 | 0.00 | 91 | 828.0 |
| 20260509045004 | 15 | 78 | 1.6 | 1.6 | 0.97 | 0.00 | 0.00 | 91 | 827.9 |
| 20260509044005 | 16 | 68 | 3.2 | 3.2 | 0.97 | 0.00 | 0.00 | 91 | 828.0 |
| 20260509043505 | 16 | 84 | 3.2 | 3.2 | 0.97 | 0.00 | 0.00 | 91 | 828.0 |
| 20260509043005 | 16 | 78 | 1.6 | 3.2 | 0.97 | 0.00 | 0.00 | 91 | 828.0 |
| 20260509042505 | 16 | 76 | 3.2 | 4.8 | 0.97 | 0.00 | 0.00 | 92 | 828.0 |
| 20260509042004 | 16 | 62 | 6.4 | 6.4 | 0.97 | 0.00 | 0.00 | 92 | 828.0 |
| 20260509041504 | 16 | 53 | 9.7 | 12.9 | 0.97 | 0.00 | 0.00 | 92 | 828.0 |
| 20260509041006 | 16 | 45 | 8.0 | 12.9 | 0.97 | 0.00 | 0.00 | 92 | 828.0 |
| 20260509040505 | 16 | 56 | 6.4 | 9.7 | 0.97 | 0.00 | 0.00 | 91 | 828.0 |
| 20260509040005 | 16 | 54 | 4.8 | 4.8 | 0.97 | 0.00 | 0.00 | 91 | 828.0 |
| 20260509035505 | 16 | 50 | 3.2 | 3.2 | 0.97 | 0.00 | 0.00 | 91 | 828.0 |
| 20260509035004 | 16 | 88 | 0.0 | 1.6 | 0.97 | 0.00 | 0.00 | 91 | 828.0 |
| 20260509034506 | 16 | 344 | 0.0 | 0.0 | 0.97 | 0.00 | 0.00 | 91 | 828.0 |
| 20260509034005 | 16 | 78 | 0.0 | 1.6 | 0.97 | 0.00 | 0.00 | 91 | 828.0 |
| 20260509033005 | 16 | 231 | 0.0 | 1.6 | 0.97 | 0.00 | 0.00 | 91 | 828.0 |
| 20260509032505 | 16 | 142 | 1.6 | 3.2 | 0.97 | 0.00 | 0.00 | 91 | 828.0 |
| 20260509032005 | 16 | 199 | 0.0 | 1.6 | 0.97 | 0.00 | 0.00 | 91 | 828.0 |
| 20260509031505 | 16 | 279 | 0.0 | 1.6 | 0.97 | 0.00 | 0.00 | 90 | 828.0 |
| 20260509031005 | 16 | 220 | 0.0 | 1.6 | 0.97 | 0.00 | 0.00 | 90 | 828.0 |
| 20260509030004 | 16 | 238 | 1.6 | 3.2 | 0.97 | 0.00 | 0.00 | 90 | 828.1 |
| 20260509025004 | 16 | 212 | 3.2 | 6.4 | 0.97 | 0.00 | 0.00 | 90 | 828.1 |
| 20260509024504 | 16 | 140 | 1.6 | 3.2 | 0.97 | 0.00 | 0.00 | 91 | 828.0 |
| 20260509024004 | 16 | 134 | 3.2 | 3.2 | 0.97 | 0.00 | 0.00 | 91 | 828.0 |
| 20260509023506 | 16 | 166 | 3.2 | 4.8 | 0.97 | 0.00 | 0.00 | 91 | 828.0 |
| 20260509023005 | 16 | 192 | 1.6 | 3.2 | 0.97 | 0.00 | 0.00 | 91 | 828.0 |
| 20260509022504 | 16 | 145 | 0.0 | 1.6 | 0.97 | 0.00 | 0.00 | 91 | 828.0 |
| 20260509022005 | 16 | 146 | 4.8 | 6.4 | 0.97 | 0.00 | 0.00 | 91 | 828.0 |
| 20260509021505 | 16 | 128 | 0.0 | 1.6 | 0.97 | 0.00 | 0.00 | 91 | 828.0 |
| 20260509020505 | 16 | 251 | 3.2 | 4.8 | 0.97 | 0.00 | 0.00 | 91 | 828.0 |
| 20260509020004 | 16 | 312 | 3.2 | 6.4 | 1.04 | 0.00 | 0.00 | 90 | 828.1 |
| 20260509015505 | 16 | 256 | 1.6 | 3.2 | 1.04 | 0.00 | 0.00 | 90 | 828.1 |
| 20260509015005 | 17 | 324 | 0.0 | 1.6 | 1.04 | 0.00 | 0.00 | 90 | 828.1 |
| 20260509014504 | 17 | 344 | 1.6 | 3.2 | 1.04 | 0.00 | 0.00 | 89 | 828.1 |
| 20260509014005 | 17 | 238 | 1.6 | 3.2 | 1.04 | 0.00 | 0.00 | 89 | 828.1 |
| 20260509013504 | 17 | 315 | 0.0 | 1.6 | 1.04 | 0.00 | 0.00 | 88 | 828.1 |
| 20260509012504 | 17 | 105 | 1.6 | 3.2 | 1.04 | 0.00 | 0.00 | 88 | 828.1 |
| 20260509012004 | 17 | 334 | 0.0 | 0.0 | 1.04 | 0.00 | 0.00 | 87 | 828.1 |
| 20260509011505 | 17 | 135 | 4.8 | 6.4 | 1.04 | 0.00 | 0.00 | 86 | 828.1 |
| 20260509011005 | 17 | 137 | 4.8 | 6.4 | 1.04 | 0.00 | 0.00 | 86 | 828.1 |
| 20260509010504 | 17 | 76 | 0.0 | 1.6 | 1.04 | 0.00 | 0.00 | 88 | 828.1 |
| 20260509010004 | 17 | 159 | 1.6 | 3.2 | 1.04 | 0.00 | 0.00 | 88 | 828.1 |
| 20260509005504 | 17 | 144 | 1.6 | 3.2 | 1.04 | 0.00 | 0.00 | 88 | 828.1 |
| 20260509005006 | 17 | 125 | 1.6 | 3.2 | 1.04 | 0.00 | 0.00 | 88 | 828.1 |
| 20260509004505 | 17 | 179 | 1.6 | 1.6 | 1.04 | 0.00 | 0.00 | 87 | 828.1 |
| 20260509004005 | 17 | 173 | 1.6 | 3.2 | 1.04 | 0.00 | 0.00 | 86 | 828.1 |
| 20260509003504 | 17 | 111 | 8.0 | 9.7 | 1.02 | 0.00 | 0.00 | 86 | 828.1 |
| 20260509003005 | 17 | 111 | 8.0 | 9.7 | 1.02 | 0.00 | 0.00 | 84 | 828.1 |
| 20260509002505 | 17 | 141 | 8.0 | 11.3 | 1.04 | 0.00 | 0.00 | 86 | 828.1 |
| 20260509002004 | 17 | 129 | 6.4 | 9.7 | 1.07 | 0.00 | 0.00 | 84 | 828.1 |
| 20260509001004 | 17 | 54 | 6.4 | 11.3 | 0.94 | 0.00 | 0.00 | 83 | 828.1 |
| 20260509000504 | 18 | 354 | 6.4 | 11.3 | 0.69 | 0.00 | 0.00 | 83 | 828.1 |
| 20260508235504 | 19 | 357 | 4.8 | 9.7 | 0.03 | 0.00 | 0.00 | 84 | 828.2 |
| 20260508235004 | 21 | 14 | 9.7 | 17.7 | 0.03 | 0.00 | 0.00 | 78 | 828.3 |
| 20260508234505 | 23 | 349 | 8.0 | 12.9 | 0.03 | 0.00 | 0.00 | 67 | 828.6 |
| 20260508234004 | 25 | 285 | 4.8 | 6.4 | 0.00 | 0.00 | 0.00 | 60 | 828.9 |
| 20260508233505 | 25 | 134 | 9.7 | 14.5 | 0.00 | 0.00 | 0.00 | 58 | 829.0 |
| 20260508232505 | 26 | 154 | 11.3 | 17.7 | 0.00 | 0.00 | 0.00 | 56 | 829.0 |
| 20260508232005 | 26 | 161 | 8.0 | 12.9 | 0.00 | 0.00 | 0.00 | 56 | 829.0 |
| 20260508231505 | 26 | 165 | 9.7 | 16.1 | 0.00 | 0.00 | 0.00 | 56 | 829.0 |
| 20260508231005 | 26 | 182 | 6.4 | 9.7 | 0.00 | 0.00 | 0.00 | 55 | 829.1 |
| 20260508230505 | 26 | 182 | 6.4 | 11.3 | 0.00 | 0.00 | 0.00 | 53 | 829.1 |
| 20260508230005 | 26 | 204 | 4.8 | 9.7 | 0.00 | 0.00 | 0.00 | 53 | 829.1 |
| 20260508225504 | 26 | 190 | 6.4 | 11.3 | 0.00 | 0.00 | 0.00 | 53 | 829.1 |
| 20260508225005 | 27 | 196 | 4.8 | 9.7 | 0.00 | 0.00 | 0.00 | 53 | 829.2 |
| 20260508224005 | 27 | 182 | 4.8 | 9.7 | 0.00 | 0.00 | 0.00 | 53 | 829.2 |
| 20260508223005 | 27 | 196 | 8.0 | 11.3 | 0.00 | 0.00 | 0.00 | 51 | 829.2 |
| 20260508222505 | 27 | 152 | 11.3 | 14.5 | 0.00 | 0.00 | 0.00 | 52 | 829.2 |
| 20260508221506 | 27 | 179 | 4.8 | 8.0 | 0.00 | 0.00 | 0.00 | 52 | 829.3 |
| 20260508221005 | 27 | 194 | 8.0 | 11.3 | 0.00 | 0.00 | 0.00 | 51 | 829.3 |
| 20260508220004 | 27 | 158 | 11.3 | 14.5 | 0.00 | 0.00 | 0.00 | 51 | 829.2 |
| 20260508215505 | 27 | 171 | 6.4 | 12.9 | 0.00 | 0.00 | 0.00 | 52 | 829.2 |
| 20260508214505 | 27 | 177 | 6.4 | 9.7 | 0.00 | 0.00 | 0.00 | 51 | 829.2 |
| 20260508214005 | 26 | 195 | 4.8 | 9.7 | 0.00 | 0.00 | 0.00 | 52 | 829.2 |